Lake Sullivan, Indiana
Current Conditions -  °F | °C
As of 10:35 PM on Friday 28 Nov 2014 (Local Time) from KRSV Reporting Station
Clear Clear  
Wind Chill: 28°   Ceiling: Unl
Heat Index: 35°   Visibility: 10mi
Dew Point: 28°   Wind: 9mph
Humidity: 76%   Direction: 170°S
Pressure: 30.01"   Gusts: NA
Location:  39.1044°N, 87.4347°W
Report Text: KRSV 290335Z AUTO 17008KT 10SM CLR 02/M02 A3001 RMK AO2 T00171021
Loading
Personal Weather Stations






























Interactive Weather Map New forecast layout! Learn more

10-Day Weather Forecast

Advertisements
Track Severe Weather on mobile